sensor_id;sensor_type;location;lat;lon;timestamp;P1;durP1;ratioP1;P2;durP2;ratioP2
11970;SDS011;6045;42.682;23.294;2022-11-20T00:01:19;0.40;;;0.40;;
11970;SDS011;6045;42.682;23.294;2022-11-20T00:03:47;3.45;;;0.70;;
11970;SDS011;6045;42.682;23.294;2022-11-20T00:06:17;2.38;;;0.60;;
11970;SDS011;6045;42.682;23.294;2022-11-20T00:08:44;0.30;;;0.30;;
11970;SDS011;6045;42.682;23.294;2022-11-20T00:11:13;0.28;;;0.28;;
11970;SDS011;6045;42.682;23.294;2022-11-20T00:13:41;0.30;;;0.30;;
11970;SDS011;6045;42.682;23.294;2022-11-20T00:16:09;0.60;;;0.17;;
11970;SDS011;6045;42.682;23.294;2022-11-20T00:18:38;2.30;;;0.73;;
11970;SDS011;6045;42.682;23.294;2022-11-20T00:21:09;1.35;;;0.43;;
11970;SDS011;6045;42.682;23.294;2022-11-20T00:23:37;0.40;;;0.40;;
11970;SDS011;6045;42.682;23.294;2022-11-20T00:26:04;0.30;;;0.30;;
11970;SDS011;6045;42.682;23.294;2022-11-20T00:28:32;2.38;;;0.52;;
11970;SDS011;6045;42.682;23.294;2022-11-20T00:31:01;0.43;;;0.43;;
11970;SDS011;6045;42.682;23.294;2022-11-20T00:33:29;0.80;;;0.80;;
11970;SDS011;6045;42.682;23.294;2022-11-20T00:36:00;0.63;;;0.20;;
11970;SDS011;6045;42.682;23.294;2022-11-20T00:38:27;0.65;;;0.50;;
11970;SDS011;6045;42.682;23.294;2022-11-20T00:40:55;0.47;;;0.25;;
11970;SDS011;6045;42.682;23.294;2022-11-20T00:43:22;0.22;;;0.22;;
11970;SDS011;6045;42.682;23.294;2022-11-20T00:45:49;1.27;;;0.70;;
11970;SDS011;6045;42.682;23.294;2022-11-20T00:48:16;0.35;;;0.35;;
11970;SDS011;6045;42.682;23.294;2022-11-20T00:50:43;0.35;;;0.28;;
11970;SDS011;6045;42.682;23.294;2022-11-20T00:53:11;1.50;;;0.50;;
11970;SDS011;6045;42.682;23.294;2022-11-20T00:55:38;0.98;;;0.70;;
11970;SDS011;6045;42.682;23.294;2022-11-20T00:58:04;1.08;;;0.60;;
11970;SDS011;6045;42.682;23.294;2022-11-20T01:00:31;0.68;;;0.40;;
11970;SDS011;6045;42.682;23.294;2022-11-20T01:02:58;1.70;;;0.45;;
11970;SDS011;6045;42.682;23.294;2022-11-20T01:05:25;1.27;;;0.52;;
11970;SDS011;6045;42.682;23.294;2022-11-20T01:07:51;0.38;;;0.38;;
11970;SDS011;6045;42.682;23.294;2022-11-20T01:10:20;0.70;;;0.70;;
11970;SDS011;6045;42.682;23.294;2022-11-20T01:12:46;0.73;;;0.40;;
11970;SDS011;6045;42.682;23.294;2022-11-20T01:15:33;0.80;;;0.63;;
11970;SDS011;6045;42.682;23.294;2022-11-20T01:18:01;1.35;;;0.28;;
11970;SDS011;6045;42.682;23.294;2022-11-20T01:20:28;0.75;;;0.52;;
11970;SDS011;6045;42.682;23.294;2022-11-20T01:22:55;0.68;;;0.52;;
11970;SDS011;6045;42.682;23.294;2022-11-20T01:25:23;0.38;;;0.38;;
11970;SDS011;6045;42.682;23.294;2022-11-20T01:27:50;1.67;;;0.50;;
11970;SDS011;6045;42.682;23.294;2022-11-20T01:30:16;1.08;;;0.28;;
11970;SDS011;6045;42.682;23.294;2022-11-20T01:32:43;1.88;;;0.57;;
11970;SDS011;6045;42.682;23.294;2022-11-20T01:35:10;0.22;;;0.22;;
11970;SDS011;6045;42.682;23.294;2022-11-20T01:37:37;0.30;;;0.30;;
11970;SDS011;6045;42.682;23.294;2022-11-20T01:40:04;0.20;;;0.20;;
11970;SDS011;6045;42.682;23.294;2022-11-20T01:42:33;2.05;;;0.45;;
11970;SDS011;6045;42.682;23.294;2022-11-20T01:48:24;0.95;;;0.20;;
11970;SDS011;6045;42.682;23.294;2022-11-20T01:50:54;0.30;;;0.30;;
11970;SDS011;6045;42.682;23.294;2022-11-20T01:53:24;0.30;;;0.30;;
11970;SDS011;6045;42.682;23.294;2022-11-20T01:55:55;0.77;;;0.25;;
11970;SDS011;6045;42.682;23.294;2022-11-20T01:58:27;0.88;;;0.43;;
11970;SDS011;6045;42.682;23.294;2022-11-20T02:00:58;0.32;;;0.25;;
11970;SDS011;6045;42.682;23.294;2022-11-20T02:03:24;0.63;;;0.50;;
11970;SDS011;6045;42.682;23.294;2022-11-20T02:05:54;1.65;;;0.65;;
11970;SDS011;6045;42.682;23.294;2022-11-20T02:08:23;1.25;;;0.70;;
11970;SDS011;6045;42.682;23.294;2022-11-20T02:10:50;0.30;;;0.30;;
11970;SDS011;6045;42.682;23.294;2022-11-20T02:13:17;0.40;;;0.40;;
11970;SDS011;6045;42.682;23.294;2022-11-20T02:16:03;0.65;;;0.43;;
11970;SDS011;6045;42.682;23.294;2022-11-20T02:18:31;1.30;;;0.50;;
11970;SDS011;6045;42.682;23.294;2022-11-20T02:21:01;1.45;;;0.40;;
11970;SDS011;6045;42.682;23.294;2022-11-20T02:23:33;0.30;;;0.30;;
11970;SDS011;6045;42.682;23.294;2022-11-20T02:26:06;0.25;;;0.25;;
11970;SDS011;6045;42.682;23.294;2022-11-20T02:28:38;2.20;;;0.60;;
11970;SDS011;6045;42.682;23.294;2022-11-20T02:31:05;0.35;;;0.35;;
11970;SDS011;6045;42.682;23.294;2022-11-20T02:33:32;0.32;;;0.20;;
11970;SDS011;6045;42.682;23.294;2022-11-20T02:35:59;1.05;;;0.28;;
11970;SDS011;6045;42.682;23.294;2022-11-20T02:38:26;0.60;;;0.60;;
11970;SDS011;6045;42.682;23.294;2022-11-20T02:40:53;0.50;;;0.50;;
11970;SDS011;6045;42.682;23.294;2022-11-20T02:43:21;1.00;;;0.55;;
11970;SDS011;6045;42.682;23.294;2022-11-20T02:45:48;1.75;;;0.90;;
11970;SDS011;6045;42.682;23.294;2022-11-20T02:48:14;0.47;;;0.47;;
11970;SDS011;6045;42.682;23.294;2022-11-20T02:50:41;0.77;;;0.50;;
11970;SDS011;6045;42.682;23.294;2022-11-20T02:53:08;0.38;;;0.38;;
11970;SDS011;6045;42.682;23.294;2022-11-20T02:55:35;2.55;;;0.40;;
11970;SDS011;6045;42.682;23.294;2022-11-20T02:58:02;0.45;;;0.45;;
11970;SDS011;6045;42.682;23.294;2022-11-20T03:00:30;0.65;;;0.60;;
11970;SDS011;6045;42.682;23.294;2022-11-20T03:02:57;0.38;;;0.38;;
11970;SDS011;6045;42.682;23.294;2022-11-20T03:05:24;2.45;;;0.50;;
11970;SDS011;6045;42.682;23.294;2022-11-20T03:07:51;2.28;;;0.60;;
11970;SDS011;6045;42.682;23.294;2022-11-20T03:10:18;0.63;;;0.60;;
11970;SDS011;6045;42.682;23.294;2022-11-20T03:12:44;0.50;;;0.50;;
11970;SDS011;6045;42.682;23.294;2022-11-20T03:15:11;1.85;;;0.75;;
11970;SDS011;6045;42.682;23.294;2022-11-20T03:17:40;0.57;;;0.50;;
11970;SDS011;6045;42.682;23.294;2022-11-20T03:20:07;1.48;;;0.60;;
11970;SDS011;6045;42.682;23.294;2022-11-20T03:22:35;0.65;;;0.50;;
11970;SDS011;6045;42.682;23.294;2022-11-20T03:25:01;0.80;;;0.80;;
11970;SDS011;6045;42.682;23.294;2022-11-20T03:27:31;0.40;;;0.40;;
11970;SDS011;6045;42.682;23.294;2022-11-20T03:29:59;9.77;;;0.60;;
11970;SDS011;6045;42.682;23.294;2022-11-20T03:32:26;2.05;;;1.13;;
11970;SDS011;6045;42.682;23.294;2022-11-20T03:34:54;1.38;;;0.50;;
11970;SDS011;6045;42.682;23.294;2022-11-20T03:37:21;3.33;;;0.50;;
11970;SDS011;6045;42.682;23.294;2022-11-20T03:39:48;0.70;;;0.70;;
11970;SDS011;6045;42.682;23.294;2022-11-20T03:42:14;0.90;;;0.40;;
11970;SDS011;6045;42.682;23.294;2022-11-20T03:44:55;0.60;;;0.60;;
11970;SDS011;6045;42.682;23.294;2022-11-20T03:47:22;0.73;;;0.50;;
11970;SDS011;6045;42.682;23.294;2022-11-20T03:49:48;0.32;;;0.32;;
11970;SDS011;6045;42.682;23.294;2022-11-20T03:52:17;0.50;;;0.50;;
11970;SDS011;6045;42.682;23.294;2022-11-20T03:54:44;1.48;;;1.13;;
11970;SDS011;6045;42.682;23.294;2022-11-20T03:57:10;0.38;;;0.30;;
11970;SDS011;6045;42.682;23.294;2022-11-20T03:59:37;0.50;;;0.50;;
11970;SDS011;6045;42.682;23.294;2022-11-20T04:02:04;0.38;;;0.38;;
11970;SDS011;6045;42.682;23.294;2022-11-20T04:04:31;1.02;;;0.50;;
11970;SDS011;6045;42.682;23.294;2022-11-20T04:06:57;0.35;;;0.35;;
11970;SDS011;6045;42.682;23.294;2022-11-20T04:09:25;0.30;;;0.30;;
11970;SDS011;6045;42.682;23.294;2022-11-20T04:11:52;1.17;;;0.38;;
11970;SDS011;6045;42.682;23.294;2022-11-20T04:14:19;0.73;;;0.50;;
11970;SDS011;6045;42.682;23.294;2022-11-20T04:16:46;0.63;;;0.63;;
11970;SDS011;6045;42.682;23.294;2022-11-20T04:19:14;1.00;;;0.70;;
11970;SDS011;6045;42.682;23.294;2022-11-20T04:21:42;0.47;;;0.40;;
11970;SDS011;6045;42.682;23.294;2022-11-20T04:24:09;1.00;;;0.55;;
11970;SDS011;6045;42.682;23.294;2022-11-20T04:26:37;0.68;;;0.50;;
11970;SDS011;6045;42.682;23.294;2022-11-20T04:29:04;0.50;;;0.50;;
11970;SDS011;6045;42.682;23.294;2022-11-20T04:31:32;0.30;;;0.30;;
11970;SDS011;6045;42.682;23.294;2022-11-20T04:34:00;1.48;;;0.63;;
11970;SDS011;6045;42.682;23.294;2022-11-20T04:36:28;0.20;;;0.20;;
11970;SDS011;6045;42.682;23.294;2022-11-20T04:38:59;0.55;;;0.40;;
11970;SDS011;6045;42.682;23.294;2022-11-20T04:41:28;0.45;;;0.20;;
11970;SDS011;6045;42.682;23.294;2022-11-20T04:43:57;0.47;;;0.47;;
11970;SDS011;6045;42.682;23.294;2022-11-20T04:46:28;0.60;;;0.30;;
11970;SDS011;6045;42.682;23.294;2022-11-20T04:48:56;0.40;;;0.40;;
11970;SDS011;6045;42.682;23.294;2022-11-20T04:51:23;2.00;;;0.43;;
11970;SDS011;6045;42.682;23.294;2022-11-20T04:53:50;1.40;;;0.45;;
11970;SDS011;6045;42.682;23.294;2022-11-20T04:56:17;0.60;;;0.50;;
11970;SDS011;6045;42.682;23.294;2022-11-20T04:58:43;0.25;;;0.25;;
11970;SDS011;6045;42.682;23.294;2022-11-20T05:01:12;1.30;;;0.40;;
11970;SDS011;6045;42.682;23.294;2022-11-20T05:03:41;0.35;;;0.35;;
11970;SDS011;6045;42.682;23.294;2022-11-20T05:06:09;0.20;;;0.20;;
11970;SDS011;6045;42.682;23.294;2022-11-20T05:08:37;0.45;;;0.20;;
11970;SDS011;6045;42.682;23.294;2022-11-20T05:11:05;0.43;;;0.43;;
11970;SDS011;6045;42.682;23.294;2022-11-20T05:13:32;0.70;;;0.43;;
11970;SDS011;6045;42.682;23.294;2022-11-20T05:16:03;0.50;;;0.32;;
11970;SDS011;6045;42.682;23.294;2022-11-20T05:18:31;4.95;;;0.38;;
11970;SDS011;6045;42.682;23.294;2022-11-20T05:20:59;0.20;;;0.20;;
11970;SDS011;6045;42.682;23.294;2022-11-20T05:23:26;0.50;;;0.30;;
11970;SDS011;6045;42.682;23.294;2022-11-20T05:25:55;0.60;;;0.40;;
11970;SDS011;6045;42.682;23.294;2022-11-20T05:28:23;0.50;;;0.50;;
11970;SDS011;6045;42.682;23.294;2022-11-20T05:30:51;1.73;;;0.63;;
11970;SDS011;6045;42.682;23.294;2022-11-20T05:33:17;1.55;;;0.75;;
11970;SDS011;6045;42.682;23.294;2022-11-20T05:35:46;0.35;;;0.32;;
11970;SDS011;6045;42.682;23.294;2022-11-20T05:38:13;0.20;;;0.20;;
11970;SDS011;6045;42.682;23.294;2022-11-20T05:40:40;1.60;;;0.35;;
11970;SDS011;6045;42.682;23.294;2022-11-20T05:43:07;0.88;;;0.40;;
11970;SDS011;6045;42.682;23.294;2022-11-20T05:45:33;0.30;;;0.30;;
11970;SDS011;6045;42.682;23.294;2022-11-20T05:48:00;0.45;;;0.40;;
11970;SDS011;6045;42.682;23.294;2022-11-20T05:50:27;0.20;;;0.20;;
11970;SDS011;6045;42.682;23.294;2022-11-20T05:52:56;0.57;;;0.40;;
11970;SDS011;6045;42.682;23.294;2022-11-20T05:55:24;0.38;;;0.30;;
11970;SDS011;6045;42.682;23.294;2022-11-20T05:57:51;1.50;;;0.43;;
11970;SDS011;6045;42.682;23.294;2022-11-20T06:00:19;1.15;;;0.50;;
11970;SDS011;6045;42.682;23.294;2022-11-20T06:02:46;0.82;;;0.40;;
11970;SDS011;6045;42.682;23.294;2022-11-20T06:05:13;0.50;;;0.50;;
11970;SDS011;6045;42.682;23.294;2022-11-20T06:07:40;0.30;;;0.30;;
11970;SDS011;6045;42.682;23.294;2022-11-20T06:10:11;0.90;;;0.70;;
11970;SDS011;6045;42.682;23.294;2022-11-20T06:12:38;0.30;;;0.30;;
11970;SDS011;6045;42.682;23.294;2022-11-20T06:15:05;0.93;;;0.43;;
11970;SDS011;6045;42.682;23.294;2022-11-20T06:17:32;0.75;;;0.40;;
11970;SDS011;6045;42.682;23.294;2022-11-20T06:19:59;0.65;;;0.50;;
11970;SDS011;6045;42.682;23.294;2022-11-20T06:22:26;0.80;;;0.70;;
11970;SDS011;6045;42.682;23.294;2022-11-20T06:24:52;1.85;;;0.73;;
11970;SDS011;6045;42.682;23.294;2022-11-20T06:27:21;1.52;;;0.50;;
11970;SDS011;6045;42.682;23.294;2022-11-20T06:29:47;0.63;;;0.50;;
11970;SDS011;6045;42.682;23.294;2022-11-20T06:32:14;2.10;;;0.77;;
11970;SDS011;6045;42.682;23.294;2022-11-20T06:34:41;1.38;;;0.70;;
11970;SDS011;6045;42.682;23.294;2022-11-20T06:37:07;0.65;;;0.50;;
11970;SDS011;6045;42.682;23.294;2022-11-20T06:39:34;1.02;;;0.40;;
11970;SDS011;6045;42.682;23.294;2022-11-20T06:42:01;1.10;;;0.60;;
11970;SDS011;6045;42.682;23.294;2022-11-20T06:44:29;1.48;;;0.70;;
11970;SDS011;6045;42.682;23.294;2022-11-20T06:46:56;0.90;;;0.85;;
11970;SDS011;6045;42.682;23.294;2022-11-20T06:49:22;2.08;;;0.63;;
11970;SDS011;6045;42.682;23.294;2022-11-20T06:51:50;1.00;;;0.60;;
11970;SDS011;6045;42.682;23.294;2022-11-20T06:54:17;2.35;;;0.52;;
11970;SDS011;6045;42.682;23.294;2022-11-20T06:56:46;1.15;;;0.70;;
11970;SDS011;6045;42.682;23.294;2022-11-20T06:59:13;0.60;;;0.60;;
11970;SDS011;6045;42.682;23.294;2022-11-20T07:01:42;0.93;;;0.50;;
11970;SDS011;6045;42.682;23.294;2022-11-20T07:04:08;1.00;;;0.70;;
11970;SDS011;6045;42.682;23.294;2022-11-20T07:06:35;0.73;;;0.65;;
11970;SDS011;6045;42.682;23.294;2022-11-20T07:09:02;1.58;;;0.60;;
11970;SDS011;6045;42.682;23.294;2022-11-20T07:11:29;0.38;;;0.38;;
11970;SDS011;6045;42.682;23.294;2022-11-20T07:13:56;0.70;;;0.60;;
11970;SDS011;6045;42.682;23.294;2022-11-20T07:16:23;2.13;;;0.60;;
11970;SDS011;6045;42.682;23.294;2022-11-20T07:18:51;1.55;;;0.82;;
11970;SDS011;6045;42.682;23.294;2022-11-20T07:21:18;1.63;;;0.80;;
11970;SDS011;6045;42.682;23.294;2022-11-20T07:23:45;1.30;;;0.50;;
11970;SDS011;6045;42.682;23.294;2022-11-20T07:26:11;1.25;;;0.70;;
11970;SDS011;6045;42.682;23.294;2022-11-20T07:28:38;2.25;;;0.70;;
11970;SDS011;6045;42.682;23.294;2022-11-20T07:31:05;1.73;;;0.85;;
11970;SDS011;6045;42.682;23.294;2022-11-20T07:33:32;0.65;;;0.65;;
11970;SDS011;6045;42.682;23.294;2022-11-20T07:36:00;2.25;;;1.05;;
11970;SDS011;6045;42.682;23.294;2022-11-20T07:38:27;1.45;;;0.82;;
11970;SDS011;6045;42.682;23.294;2022-11-20T07:40:55;2.38;;;0.73;;
11970;SDS011;6045;42.682;23.294;2022-11-20T07:43:22;0.50;;;0.47;;
11970;SDS011;6045;42.682;23.294;2022-11-20T07:45:50;1.60;;;0.90;;
11970;SDS011;6045;42.682;23.294;2022-11-20T07:48:17;1.52;;;0.70;;
11970;SDS011;6045;42.682;23.294;2022-11-20T07:50:43;1.65;;;0.68;;
11970;SDS011;6045;42.682;23.294;2022-11-20T07:53:12;2.80;;;1.25;;
11970;SDS011;6045;42.682;23.294;2022-11-20T07:55:39;0.77;;;0.77;;
11970;SDS011;6045;42.682;23.294;2022-11-20T07:58:06;1.42;;;0.93;;
11970;SDS011;6045;42.682;23.294;2022-11-20T08:00:33;1.58;;;1.02;;
11970;SDS011;6045;42.682;23.294;2022-11-20T08:03:02;1.35;;;0.95;;
11970;SDS011;6045;42.682;23.294;2022-11-20T08:05:29;0.55;;;0.50;;
11970;SDS011;6045;42.682;23.294;2022-11-20T08:07:56;1.45;;;1.13;;
11970;SDS011;6045;42.682;23.294;2022-11-20T08:10:24;3.47;;;1.88;;
11970;SDS011;6045;42.682;23.294;2022-11-20T08:12:51;2.67;;;1.48;;
11970;SDS011;6045;42.682;23.294;2022-11-20T08:15:36;0.85;;;0.85;;
11970;SDS011;6045;42.682;23.294;2022-11-20T08:18:05;1.30;;;1.20;;
11970;SDS011;6045;42.682;23.294;2022-11-20T08:20:33;2.05;;;1.23;;
11970;SDS011;6045;42.682;23.294;2022-11-20T08:23:01;3.10;;;0.98;;
11970;SDS011;6045;42.682;23.294;2022-11-20T08:25:32;2.55;;;0.90;;
11970;SDS011;6045;42.682;23.294;2022-11-20T08:28:00;1.15;;;0.70;;
11970;SDS011;6045;42.682;23.294;2022-11-20T08:30:28;1.40;;;1.00;;
11970;SDS011;6045;42.682;23.294;2022-11-20T08:32:59;1.17;;;0.70;;
11970;SDS011;6045;42.682;23.294;2022-11-20T08:35:28;1.48;;;0.90;;
11970;SDS011;6045;42.682;23.294;2022-11-20T08:37:55;1.33;;;0.50;;
11970;SDS011;6045;42.682;23.294;2022-11-20T08:40:21;3.25;;;0.57;;
11970;SDS011;6045;42.682;23.294;2022-11-20T08:42:50;0.85;;;0.77;;
11970;SDS011;6045;42.682;23.294;2022-11-20T08:45:17;1.70;;;0.65;;
11970;SDS011;6045;42.682;23.294;2022-11-20T08:47:45;1.50;;;1.00;;
11970;SDS011;6045;42.682;23.294;2022-11-20T08:50:13;1.67;;;0.80;;
11970;SDS011;6045;42.682;23.294;2022-11-20T08:52:41;0.57;;;0.50;;
11970;SDS011;6045;42.682;23.294;2022-11-20T08:55:08;1.02;;;0.73;;
11970;SDS011;6045;42.682;23.294;2022-11-20T08:57:36;0.80;;;0.80;;
11970;SDS011;6045;42.682;23.294;2022-11-20T09:00:06;7.30;;;1.67;;
11970;SDS011;6045;42.682;23.294;2022-11-20T09:02:34;1.13;;;1.00;;
11970;SDS011;6045;42.682;23.294;2022-11-20T09:05:00;1.42;;;1.33;;
11970;SDS011;6045;42.682;23.294;2022-11-20T09:07:28;1.35;;;0.77;;
11970;SDS011;6045;42.682;23.294;2022-11-20T09:09:55;1.67;;;1.33;;
11970;SDS011;6045;42.682;23.294;2022-11-20T09:12:22;2.38;;;0.70;;
11970;SDS011;6045;42.682;23.294;2022-11-20T09:14:48;2.17;;;1.17;;
11970;SDS011;6045;42.682;23.294;2022-11-20T09:17:16;5.40;;;1.48;;
11970;SDS011;6045;42.682;23.294;2022-11-20T09:19:45;1.08;;;0.98;;
11970;SDS011;6045;42.682;23.294;2022-11-20T09:22:13;3.90;;;1.65;;
11970;SDS011;6045;42.682;23.294;2022-11-20T09:24:39;2.50;;;0.80;;
11970;SDS011;6045;42.682;23.294;2022-11-20T09:27:07;0.43;;;0.43;;
11970;SDS011;6045;42.682;23.294;2022-11-20T09:29:34;0.63;;;0.60;;
11970;SDS011;6045;42.682;23.294;2022-11-20T09:32:01;0.82;;;0.60;;
11970;SDS011;6045;42.682;23.294;2022-11-20T09:34:29;1.10;;;0.60;;
11970;SDS011;6045;42.682;23.294;2022-11-20T09:36:56;0.67;;;0.57;;
11970;SDS011;6045;42.682;23.294;2022-11-20T09:39:23;0.40;;;0.40;;
11970;SDS011;6045;42.682;23.294;2022-11-20T09:44:45;0.70;;;0.63;;
11970;SDS011;6045;42.682;23.294;2022-11-20T09:47:24;2.33;;;0.50;;
11970;SDS011;6045;42.682;23.294;2022-11-20T09:50:05;1.40;;;0.63;;
11970;SDS011;6045;42.682;23.294;2022-11-20T09:52:45;3.72;;;0.80;;
11970;SDS011;6045;42.682;23.294;2022-11-20T09:55:19;1.65;;;1.17;;
11970;SDS011;6045;42.682;23.294;2022-11-20T09:57:47;0.88;;;0.88;;
11970;SDS011;6045;42.682;23.294;2022-11-20T10:00:17;1.88;;;0.60;;
11970;SDS011;6045;42.682;23.294;2022-11-20T10:02:47;0.75;;;0.70;;
11970;SDS011;6045;42.682;23.294;2022-11-20T10:05:21;1.92;;;1.20;;
11970;SDS011;6045;42.682;23.294;2022-11-20T10:07:52;3.20;;;1.00;;
11970;SDS011;6045;42.682;23.294;2022-11-20T10:10:28;3.05;;;1.08;;
11970;SDS011;6045;42.682;23.294;2022-11-20T10:13:03;1.02;;;0.93;;
11970;SDS011;6045;42.682;23.294;2022-11-20T10:15:45;2.38;;;1.00;;
11970;SDS011;6045;42.682;23.294;2022-11-20T10:18:23;2.08;;;1.00;;
11970;SDS011;6045;42.682;23.294;2022-11-20T10:21:08;1.50;;;0.88;;
11970;SDS011;6045;42.682;23.294;2022-11-20T10:26:52;5.30;;;1.15;;
11970;SDS011;6045;42.682;23.294;2022-11-20T10:29:32;3.40;;;1.20;;
11970;SDS011;6045;42.682;23.294;2022-11-20T10:32:01;3.15;;;1.23;;
11970;SDS011;6045;42.682;23.294;2022-11-20T10:34:31;1.02;;;1.00;;
11970;SDS011;6045;42.682;23.294;2022-11-20T10:37:09;3.33;;;0.98;;
11970;SDS011;6045;42.682;23.294;2022-11-20T10:39:41;2.08;;;1.08;;
11970;SDS011;6045;42.682;23.294;2022-11-20T10:42:15;4.88;;;1.30;;
11970;SDS011;6045;42.682;23.294;2022-11-20T10:44:43;3.30;;;1.33;;
11970;SDS011;6045;42.682;23.294;2022-11-20T10:47:28;1.42;;;1.15;;
11970;SDS011;6045;42.682;23.294;2022-11-20T10:49:57;2.13;;;1.50;;
11970;SDS011;6045;42.682;23.294;2022-11-20T10:52:31;1.73;;;0.98;;
11970;SDS011;6045;42.682;23.294;2022-11-20T10:55:11;1.85;;;1.25;;
11970;SDS011;6045;42.682;23.294;2022-11-20T10:57:52;2.28;;;1.40;;
11970;SDS011;6045;42.682;23.294;2022-11-20T11:00:23;3.13;;;1.50;;
11970;SDS011;6045;42.682;23.294;2022-11-20T11:02:50;5.70;;;1.73;;
11970;SDS011;6045;42.682;23.294;2022-11-20T11:05:22;3.13;;;1.73;;
11970;SDS011;6045;42.682;23.294;2022-11-20T11:07:58;1.55;;;0.60;;
11970;SDS011;6045;42.682;23.294;2022-11-20T11:10:26;1.30;;;0.80;;
11970;SDS011;6045;42.682;23.294;2022-11-20T11:13:06;2.20;;;0.90;;
11970;SDS011;6045;42.682;23.294;2022-11-20T11:15:37;0.60;;;0.47;;
11970;SDS011;6045;42.682;23.294;2022-11-20T11:18:05;1.00;;;0.30;;
11970;SDS011;6045;42.682;23.294;2022-11-20T11:20:34;0.47;;;0.47;;
11970;SDS011;6045;42.682;23.294;2022-11-20T11:23:03;0.33;;;0.33;;
11970;SDS011;6045;42.682;23.294;2022-11-20T11:25:30;0.97;;;0.63;;
11970;SDS011;6045;42.682;23.294;2022-11-20T11:28:00;0.40;;;0.40;;
11970;SDS011;6045;42.682;23.294;2022-11-20T11:30:28;0.00;;;0.00;;
11970;SDS011;6045;42.682;23.294;2022-11-20T11:33:06;0.33;;;0.33;;
11970;SDS011;6045;42.682;23.294;2022-11-20T11:35:38;0.20;;;0.10;;
11970;SDS011;6045;42.682;23.294;2022-11-20T11:38:13;0.37;;;0.10;;
11970;SDS011;6045;42.682;23.294;2022-11-20T11:40:43;0.10;;;0.10;;
11970;SDS011;6045;42.682;23.294;2022-11-20T11:43:18;0.10;;;0.10;;
11970;SDS011;6045;42.682;23.294;2022-11-20T11:46:05;0.00;;;0.00;;
11970;SDS011;6045;42.682;23.294;2022-11-20T11:48:55;2.47;;;0.13;;
11970;SDS011;6045;42.682;23.294;2022-11-20T11:51:23;0.50;;;0.50;;
11970;SDS011;6045;42.682;23.294;2022-11-20T11:53:56;0.77;;;0.33;;
11970;SDS011;6045;42.682;23.294;2022-11-20T11:56:24;1.40;;;1.30;;
11970;SDS011;6045;42.682;23.294;2022-11-20T11:58:53;2.50;;;0.90;;
11970;SDS011;6045;42.682;23.294;2022-11-20T12:01:27;0.30;;;0.20;;
11970;SDS011;6045;42.682;23.294;2022-11-20T12:04:00;2.53;;;0.20;;
11970;SDS011;6045;42.682;23.294;2022-11-20T12:06:30;0.30;;;0.30;;
11970;SDS011;6045;42.682;23.294;2022-11-20T12:09:03;0.17;;;0.17;;
11970;SDS011;6045;42.682;23.294;2022-11-20T12:11:33;0.23;;;0.20;;
11970;SDS011;6045;42.682;23.294;2022-11-20T12:14:04;0.50;;;0.50;;
11970;SDS011;6045;42.682;23.294;2022-11-20T12:16:40;0.30;;;0.20;;
11970;SDS011;6045;42.682;23.294;2022-11-20T12:19:08;0.27;;;0.20;;
11970;SDS011;6045;42.682;23.294;2022-11-20T12:21:40;0.83;;;0.20;;
11970;SDS011;6045;42.682;23.294;2022-11-20T12:24:28;1.30;;;0.20;;
11970;SDS011;6045;42.682;23.294;2022-11-20T12:27:14;0.80;;;0.30;;
11970;SDS011;6045;42.682;23.294;2022-11-20T12:30:03;0.33;;;0.33;;
11970;SDS011;6045;42.682;23.294;2022-11-20T12:32:53;0.93;;;0.43;;
11970;SDS011;6045;42.682;23.294;2022-11-20T12:35:42;1.23;;;0.63;;
11970;SDS011;6045;42.682;23.294;2022-11-20T12:38:28;0.67;;;0.40;;
11970;SDS011;6045;42.682;23.294;2022-11-20T12:41:14;0.23;;;0.20;;
11970;SDS011;6045;42.682;23.294;2022-11-20T12:44:02;0.77;;;0.50;;
11970;SDS011;6045;42.682;23.294;2022-11-20T12:46:55;0.57;;;0.20;;
11970;SDS011;6045;42.682;23.294;2022-11-20T12:49:36;1.13;;;0.77;;
11970;SDS011;6045;42.682;23.294;2022-11-20T12:52:20;0.73;;;0.70;;
11970;SDS011;6045;42.682;23.294;2022-11-20T12:55:12;2.42;;;0.55;;
11970;SDS011;6045;42.682;23.294;2022-11-20T12:57:49;0.70;;;0.47;;
11970;SDS011;6045;42.682;23.294;2022-11-20T13:00:20;1.55;;;0.70;;
11970;SDS011;6045;42.682;23.294;2022-11-20T13:02:57;1.52;;;0.95;;
11970;SDS011;6045;42.682;23.294;2022-11-20T13:05:35;1.17;;;0.90;;
11970;SDS011;6045;42.682;23.294;2022-11-20T13:08:12;2.17;;;1.30;;
11970;SDS011;6045;42.682;23.294;2022-11-20T13:10:46;2.37;;;1.47;;
11970;SDS011;6045;42.682;23.294;2022-11-20T13:13:19;3.67;;;1.60;;
11970;SDS011;6045;42.682;23.294;2022-11-20T13:15:54;3.60;;;1.83;;
11970;SDS011;6045;42.682;23.294;2022-11-20T13:18:24;1.47;;;1.17;;
11970;SDS011;6045;42.682;23.294;2022-11-20T13:20:52;3.93;;;1.40;;
11970;SDS011;6045;42.682;23.294;2022-11-20T13:23:24;2.63;;;1.53;;
11970;SDS011;6045;42.682;23.294;2022-11-20T13:26:02;1.97;;;1.00;;
11970;SDS011;6045;42.682;23.294;2022-11-20T13:28:33;4.10;;;1.40;;
11970;SDS011;6045;42.682;23.294;2022-11-20T13:30:59;3.33;;;1.93;;
11970;SDS011;6045;42.682;23.294;2022-11-20T13:33:28;3.27;;;2.17;;
11970;SDS011;6045;42.682;23.294;2022-11-20T13:35:58;4.30;;;2.70;;
11970;SDS011;6045;42.682;23.294;2022-11-20T13:38:26;7.23;;;3.10;;
11970;SDS011;6045;42.682;23.294;2022-11-20T13:40:54;5.80;;;2.97;;
11970;SDS011;6045;42.682;23.294;2022-11-20T13:43:23;2.93;;;2.50;;
11970;SDS011;6045;42.682;23.294;2022-11-20T13:45:56;2.37;;;1.70;;
11970;SDS011;6045;42.682;23.294;2022-11-20T13:48:26;2.47;;;1.57;;
11970;SDS011;6045;42.682;23.294;2022-11-20T13:51:02;6.00;;;2.07;;
11970;SDS011;6045;42.682;23.294;2022-11-20T13:56:27;3.07;;;1.97;;
11970;SDS011;6045;42.682;23.294;2022-11-20T13:59:07;1.67;;;1.53;;
11970;SDS011;6045;42.682;23.294;2022-11-20T14:01:49;3.17;;;1.63;;
11970;SDS011;6045;42.682;23.294;2022-11-20T14:04:18;2.17;;;1.70;;
11970;SDS011;6045;42.682;23.294;2022-11-20T14:06:52;2.60;;;1.53;;
11970;SDS011;6045;42.682;23.294;2022-11-20T14:09:25;4.60;;;1.53;;
11970;SDS011;6045;42.682;23.294;2022-11-20T14:11:53;2.33;;;2.13;;
11970;SDS011;6045;42.682;23.294;2022-11-20T14:14:24;1.80;;;1.57;;
11970;SDS011;6045;42.682;23.294;2022-11-20T14:17:03;3.10;;;1.83;;
11970;SDS011;6045;42.682;23.294;2022-11-20T14:19:32;1.30;;;1.20;;
11970;SDS011;6045;42.682;23.294;2022-11-20T14:22:16;4.03;;;1.87;;
11970;SDS011;6045;42.682;23.294;2022-11-20T14:24:45;5.57;;;1.83;;
11970;SDS011;6045;42.682;23.294;2022-11-20T14:27:12;2.97;;;1.87;;
11970;SDS011;6045;42.682;23.294;2022-11-20T14:29:40;3.10;;;2.03;;
11970;SDS011;6045;42.682;23.294;2022-11-20T14:32:09;2.53;;;1.63;;
11970;SDS011;6045;42.682;23.294;2022-11-20T14:34:37;3.20;;;2.00;;
11970;SDS011;6045;42.682;23.294;2022-11-20T14:37:09;1.83;;;1.63;;
11970;SDS011;6045;42.682;23.294;2022-11-20T14:39:40;2.47;;;1.60;;
11970;SDS011;6045;42.682;23.294;2022-11-20T14:42:14;3.17;;;2.10;;
11970;SDS011;6045;42.682;23.294;2022-11-20T14:44:42;2.73;;;1.87;;
11970;SDS011;6045;42.682;23.294;2022-11-20T14:47:12;3.87;;;2.13;;
11970;SDS011;6045;42.682;23.294;2022-11-20T14:49:41;3.60;;;1.90;;
11970;SDS011;6045;42.682;23.294;2022-11-20T14:52:12;1.67;;;1.17;;
11970;SDS011;6045;42.682;23.294;2022-11-20T14:54:45;0.80;;;0.60;;
11970;SDS011;6045;42.682;23.294;2022-11-20T15:00:06;0.63;;;0.50;;
11970;SDS011;6045;42.682;23.294;2022-11-20T15:02:45;1.40;;;1.00;;
11970;SDS011;6045;42.682;23.294;2022-11-20T15:05:14;1.73;;;1.00;;
11970;SDS011;6045;42.682;23.294;2022-11-20T15:07:43;1.13;;;1.03;;
11970;SDS011;6045;42.682;23.294;2022-11-20T15:10:12;1.00;;;0.90;;
11970;SDS011;6045;42.682;23.294;2022-11-20T15:12:46;1.40;;;1.30;;
11970;SDS011;6045;42.682;23.294;2022-11-20T15:15:16;2.83;;;1.57;;
11970;SDS011;6045;42.682;23.294;2022-11-20T15:17:48;2.23;;;1.30;;
11970;SDS011;6045;42.682;23.294;2022-11-20T15:20:16;2.23;;;1.37;;